sensor_id;sensor_type;location;lat;lon;timestamp;P1;durP1;ratioP1;P2;durP2;ratioP2
8183;SDS011;4133;48.752;9.088;2023-02-01T00:01:04;5.13;;;3.60;;
8183;SDS011;4133;48.752;9.088;2023-02-01T00:03:30;3.97;;;3.60;;
8183;SDS011;4133;48.752;9.088;2023-02-01T00:05:57;4.33;;;3.47;;
8183;SDS011;4133;48.752;9.088;2023-02-01T00:08:23;4.10;;;3.40;;
8183;SDS011;4133;48.752;9.088;2023-02-01T00:10:57;4.17;;;3.10;;
8183;SDS011;4133;48.752;9.088;2023-02-01T00:13:23;3.60;;;2.67;;
8183;SDS011;4133;48.752;9.088;2023-02-01T00:15:49;3.57;;;2.60;;
8183;SDS011;4133;48.752;9.088;2023-02-01T00:18:14;3.20;;;2.57;;
8183;SDS011;4133;48.752;9.088;2023-02-01T00:20:45;3.13;;;2.50;;
8183;SDS011;4133;48.752;9.088;2023-02-01T00:23:11;2.50;;;2.30;;
8183;SDS011;4133;48.752;9.088;2023-02-01T00:25:37;3.20;;;2.40;;
8183;SDS011;4133;48.752;9.088;2023-02-01T00:28:04;3.60;;;2.47;;
8183;SDS011;4133;48.752;9.088;2023-02-01T00:30:30;2.70;;;2.50;;
8183;SDS011;4133;48.752;9.088;2023-02-01T00:32:56;3.63;;;2.70;;
8183;SDS011;4133;48.752;9.088;2023-02-01T00:35:22;2.60;;;2.20;;
8183;SDS011;4133;48.752;9.088;2023-02-01T00:37:48;2.60;;;2.40;;
8183;SDS011;4133;48.752;9.088;2023-02-01T00:40:14;3.37;;;2.40;;
8183;SDS011;4133;48.752;9.088;2023-02-01T00:42:40;2.83;;;2.50;;
8183;SDS011;4133;48.752;9.088;2023-02-01T00:45:06;2.60;;;2.30;;
8183;SDS011;4133;48.752;9.088;2023-02-01T00:47:35;2.50;;;2.20;;
8183;SDS011;4133;48.752;9.088;2023-02-01T00:50:01;2.80;;;2.40;;
8183;SDS011;4133;48.752;9.088;2023-02-01T00:52:28;2.53;;;2.30;;
8183;SDS011;4133;48.752;9.088;2023-02-01T00:54:54;2.30;;;2.10;;
8183;SDS011;4133;48.752;9.088;2023-02-01T00:57:20;2.23;;;2.03;;
8183;SDS011;4133;48.752;9.088;2023-02-01T00:59:46;2.60;;;2.20;;
8183;SDS011;4133;48.752;9.088;2023-02-01T01:02:12;2.73;;;2.03;;
8183;SDS011;4133;48.752;9.088;2023-02-01T01:04:39;2.40;;;2.20;;
8183;SDS011;4133;48.752;9.088;2023-02-01T01:07:05;2.43;;;2.07;;
8183;SDS011;4133;48.752;9.088;2023-02-01T01:09:31;3.03;;;2.17;;
8183;SDS011;4133;48.752;9.088;2023-02-01T01:11:57;2.37;;;2.17;;
8183;SDS011;4133;48.752;9.088;2023-02-01T01:14:28;2.30;;;2.10;;
8183;SDS011;4133;48.752;9.088;2023-02-01T01:16:55;1.90;;;1.80;;
8183;SDS011;4133;48.752;9.088;2023-02-01T01:19:21;2.03;;;1.93;;
8183;SDS011;4133;48.752;9.088;2023-02-01T01:21:47;1.90;;;1.80;;
8183;SDS011;4133;48.752;9.088;2023-02-01T01:24:13;2.47;;;2.10;;
8183;SDS011;4133;48.752;9.088;2023-02-01T01:26:39;1.93;;;1.77;;
8183;SDS011;4133;48.752;9.088;2023-02-01T01:29:05;2.10;;;1.67;;
8183;SDS011;4133;48.752;9.088;2023-02-01T01:31:31;2.70;;;2.10;;
8183;SDS011;4133;48.752;9.088;2023-02-01T01:33:58;2.10;;;1.90;;
8183;SDS011;4133;48.752;9.088;2023-02-01T01:36:25;1.80;;;1.70;;
8183;SDS011;4133;48.752;9.088;2023-02-01T01:38:52;2.00;;;1.80;;
8183;SDS011;4133;48.752;9.088;2023-02-01T01:41:19;2.13;;;1.97;;
8183;SDS011;4133;48.752;9.088;2023-02-01T01:43:46;2.00;;;1.70;;
8183;SDS011;4133;48.752;9.088;2023-02-01T01:46:46;2.00;;;1.60;;
8183;SDS011;4133;48.752;9.088;2023-02-01T01:49:16;1.70;;;1.60;;
8183;SDS011;4133;48.752;9.088;2023-02-01T01:51:49;1.63;;;1.53;;
8183;SDS011;4133;48.752;9.088;2023-02-01T01:54:18;2.30;;;1.80;;
8183;SDS011;4133;48.752;9.088;2023-02-01T01:56:47;1.70;;;1.60;;
8183;SDS011;4133;48.752;9.088;2023-02-01T01:59:15;1.80;;;1.70;;
8183;SDS011;4133;48.752;9.088;2023-02-01T02:01:41;1.83;;;1.73;;
8183;SDS011;4133;48.752;9.088;2023-02-01T02:04:07;3.20;;;2.47;;
8183;SDS011;4133;48.752;9.088;2023-02-01T02:06:50;3.23;;;2.30;;
8183;SDS011;4133;48.752;9.088;2023-02-01T02:09:17;2.30;;;2.10;;
8183;SDS011;4133;48.752;9.088;2023-02-01T02:11:43;2.83;;;2.43;;
8183;SDS011;4133;48.752;9.088;2023-02-01T02:14:09;2.30;;;2.07;;
8183;SDS011;4133;48.752;9.088;2023-02-01T02:16:41;2.83;;;2.40;;
8183;SDS011;4133;48.752;9.088;2023-02-01T02:19:22;4.13;;;2.50;;
8183;SDS011;4133;48.752;9.088;2023-02-01T02:32:29;2.70;;;2.50;;
8183;SDS011;4133;48.752;9.088;2023-02-01T02:35:05;3.97;;;2.70;;
8183;SDS011;4133;48.752;9.088;2023-02-01T02:37:43;2.97;;;2.67;;
8183;SDS011;4133;48.752;9.088;2023-02-01T02:45:38;3.40;;;2.57;;
8183;SDS011;4133;48.752;9.088;2023-02-01T02:48:29;2.70;;;2.43;;
8183;SDS011;4133;48.752;9.088;2023-02-01T02:51:04;3.93;;;3.00;;
8183;SDS011;4133;48.752;9.088;2023-02-01T02:54:10;3.00;;;2.70;;
8183;SDS011;4133;48.752;9.088;2023-02-01T02:56:56;2.60;;;2.40;;
8183;SDS011;4133;48.752;9.088;2023-02-01T02:59:43;2.60;;;2.40;;
8183;SDS011;4133;48.752;9.088;2023-02-01T03:02:28;2.57;;;2.37;;
8183;SDS011;4133;48.752;9.088;2023-02-01T03:05:13;4.10;;;2.80;;
8183;SDS011;4133;48.752;9.088;2023-02-01T03:10:11;2.50;;;2.30;;
8183;SDS011;4133;48.752;9.088;2023-02-01T03:12:42;2.57;;;2.37;;
8183;SDS011;4133;48.752;9.088;2023-02-01T03:15:41;4.77;;;3.33;;
8183;SDS011;4133;48.752;9.088;2023-02-01T03:18:13;2.90;;;2.60;;
8183;SDS011;4133;48.752;9.088;2023-02-01T03:20:42;2.97;;;2.47;;
8183;SDS011;4133;48.752;9.088;2023-02-01T03:23:09;2.40;;;2.20;;
8183;SDS011;4133;48.752;9.088;2023-02-01T03:25:36;2.83;;;2.10;;
8183;SDS011;4133;48.752;9.088;2023-02-01T03:28:03;2.30;;;2.10;;
8183;SDS011;4133;48.752;9.088;2023-02-01T03:30:34;3.07;;;2.20;;
8183;SDS011;4133;48.752;9.088;2023-02-01T03:33:02;2.47;;;2.27;;
8183;SDS011;4133;48.752;9.088;2023-02-01T03:38:03;2.50;;;2.30;;
8183;SDS011;4133;48.752;9.088;2023-02-01T03:40:33;2.40;;;2.20;;
8183;SDS011;4133;48.752;9.088;2023-02-01T03:43:01;2.77;;;2.53;;
8183;SDS011;4133;48.752;9.088;2023-02-01T03:45:31;2.27;;;2.07;;
8183;SDS011;4133;48.752;9.088;2023-02-01T03:47:59;2.20;;;1.97;;
8183;SDS011;4133;48.752;9.088;2023-02-01T03:50:26;2.50;;;2.30;;
8183;SDS011;4133;48.752;9.088;2023-02-01T03:53:01;3.07;;;2.33;;
8183;SDS011;4133;48.752;9.088;2023-02-01T03:55:28;2.27;;;2.07;;
8183;SDS011;4133;48.752;9.088;2023-02-01T03:57:56;2.30;;;2.10;;
8183;SDS011;4133;48.752;9.088;2023-02-01T04:00:23;2.67;;;2.47;;
8183;SDS011;4133;48.752;9.088;2023-02-01T04:02:50;2.43;;;2.23;;
8183;SDS011;4133;48.752;9.088;2023-02-01T04:05:16;2.30;;;2.10;;
8183;SDS011;4133;48.752;9.088;2023-02-01T04:07:42;1.97;;;1.87;;
8183;SDS011;4133;48.752;9.088;2023-02-01T04:10:09;3.10;;;2.30;;
8183;SDS011;4133;48.752;9.088;2023-02-01T04:12:35;2.33;;;2.13;;
8183;SDS011;4133;48.752;9.088;2023-02-01T04:15:01;2.50;;;2.10;;
8183;SDS011;4133;48.752;9.088;2023-02-01T04:17:28;2.23;;;2.03;;
8183;SDS011;4133;48.752;9.088;2023-02-01T04:19:54;2.63;;;2.13;;
8183;SDS011;4133;48.752;9.088;2023-02-01T04:22:20;2.53;;;1.90;;
8183;SDS011;4133;48.752;9.088;2023-02-01T04:24:46;2.00;;;1.80;;
8183;SDS011;4133;48.752;9.088;2023-02-01T04:27:12;1.90;;;1.80;;
8183;SDS011;4133;48.752;9.088;2023-02-01T04:29:38;1.63;;;1.53;;
8183;SDS011;4133;48.752;9.088;2023-02-01T04:32:04;1.90;;;1.80;;
8183;SDS011;4133;48.752;9.088;2023-02-01T04:34:31;1.70;;;1.60;;
8183;SDS011;4133;48.752;9.088;2023-02-01T04:36:57;1.67;;;1.57;;
8183;SDS011;4133;48.752;9.088;2023-02-01T04:39:23;1.90;;;1.80;;
8183;SDS011;4133;48.752;9.088;2023-02-01T04:41:49;2.60;;;1.70;;
8183;SDS011;4133;48.752;9.088;2023-02-01T04:44:16;2.87;;;1.93;;
8183;SDS011;4133;48.752;9.088;2023-02-01T04:46:43;1.97;;;1.73;;
8183;SDS011;4133;48.752;9.088;2023-02-01T04:49:13;1.87;;;1.60;;
8183;SDS011;4133;48.752;9.088;2023-02-01T04:51:39;3.33;;;1.43;;
8183;SDS011;4133;48.752;9.088;2023-02-01T04:54:05;2.30;;;1.60;;
8183;SDS011;4133;48.752;9.088;2023-02-01T04:56:31;1.80;;;1.70;;
8183;SDS011;4133;48.752;9.088;2023-02-01T04:58:59;1.97;;;1.77;;
8183;SDS011;4133;48.752;9.088;2023-02-01T05:01:27;1.70;;;1.60;;
8183;SDS011;4133;48.752;9.088;2023-02-01T05:03:53;3.77;;;1.90;;
8183;SDS011;4133;48.752;9.088;2023-02-01T05:06:19;1.80;;;1.70;;
8183;SDS011;4133;48.752;9.088;2023-02-01T05:08:45;2.07;;;1.87;;
8183;SDS011;4133;48.752;9.088;2023-02-01T05:11:11;2.70;;;1.80;;
8183;SDS011;4133;48.752;9.088;2023-02-01T05:13:56;2.43;;;1.80;;
8183;SDS011;4133;48.752;9.088;2023-02-01T05:16:22;2.20;;;2.00;;
8183;SDS011;4133;48.752;9.088;2023-02-01T05:18:48;2.00;;;1.90;;
8183;SDS011;4133;48.752;9.088;2023-02-01T05:21:14;2.10;;;1.90;;
8183;SDS011;4133;48.752;9.088;2023-02-01T05:23:40;1.80;;;1.70;;
8183;SDS011;4133;48.752;9.088;2023-02-01T05:26:25;1.80;;;1.70;;
8183;SDS011;4133;48.752;9.088;2023-02-01T05:28:51;2.10;;;1.90;;
8183;SDS011;4133;48.752;9.088;2023-02-01T05:31:17;2.43;;;1.73;;
8183;SDS011;4133;48.752;9.088;2023-02-01T05:33:43;2.53;;;1.83;;
8183;SDS011;4133;48.752;9.088;2023-02-01T05:36:09;1.90;;;1.70;;
8183;SDS011;4133;48.752;9.088;2023-02-01T05:38:34;2.10;;;2.00;;
8183;SDS011;4133;48.752;9.088;2023-02-01T05:41:00;2.23;;;2.03;;
8183;SDS011;4133;48.752;9.088;2023-02-01T05:43:26;2.00;;;1.90;;
8183;SDS011;4133;48.752;9.088;2023-02-01T05:45:52;2.20;;;1.60;;
8183;SDS011;4133;48.752;9.088;2023-02-01T05:48:18;2.20;;;2.00;;
8183;SDS011;4133;48.752;9.088;2023-02-01T05:50:45;2.27;;;2.07;;
8183;SDS011;4133;48.752;9.088;2023-02-01T05:53:11;3.27;;;2.23;;
8183;SDS011;4133;48.752;9.088;2023-02-01T05:55:37;3.07;;;2.00;;
8183;SDS011;4133;48.752;9.088;2023-02-01T05:58:04;1.93;;;1.73;;
8183;SDS011;4133;48.752;9.088;2023-02-01T06:00:30;2.40;;;1.80;;
8183;SDS011;4133;48.752;9.088;2023-02-01T06:02:56;2.10;;;1.90;;
8183;SDS011;4133;48.752;9.088;2023-02-01T06:05:22;5.00;;;2.17;;
8183;SDS011;4133;48.752;9.088;2023-02-01T06:07:48;2.03;;;1.80;;
8183;SDS011;4133;48.752;9.088;2023-02-01T06:10:15;2.80;;;2.00;;
8183;SDS011;4133;48.752;9.088;2023-02-01T06:12:41;2.70;;;1.93;;
8183;SDS011;4133;48.752;9.088;2023-02-01T06:15:07;1.97;;;1.83;;
8183;SDS011;4133;48.752;9.088;2023-02-01T06:17:34;2.27;;;2.07;;
8183;SDS011;4133;48.752;9.088;2023-02-01T06:20:00;2.43;;;1.90;;
8183;SDS011;4133;48.752;9.088;2023-02-01T06:22:26;2.10;;;1.90;;
8183;SDS011;4133;48.752;9.088;2023-02-01T06:24:52;2.43;;;1.90;;
8183;SDS011;4133;48.752;9.088;2023-02-01T06:27:18;4.13;;;2.10;;
8183;SDS011;4133;48.752;9.088;2023-02-01T06:29:43;2.30;;;2.10;;
8183;SDS011;4133;48.752;9.088;2023-02-01T06:32:10;2.97;;;2.07;;
8183;SDS011;4133;48.752;9.088;2023-02-01T06:34:38;2.03;;;1.87;;
8183;SDS011;4133;48.752;9.088;2023-02-01T06:37:04;2.80;;;2.10;;
8183;SDS011;4133;48.752;9.088;2023-02-01T06:39:30;3.33;;;2.10;;
8183;SDS011;4133;48.752;9.088;2023-02-01T06:41:56;2.67;;;1.87;;
8183;SDS011;4133;48.752;9.088;2023-02-01T06:44:22;2.43;;;1.80;;
8183;SDS011;4133;48.752;9.088;2023-02-01T06:46:48;3.97;;;2.13;;
8183;SDS011;4133;48.752;9.088;2023-02-01T06:49:14;2.17;;;1.83;;
8183;SDS011;4133;48.752;9.088;2023-02-01T06:51:40;6.70;;;2.20;;
8183;SDS011;4133;48.752;9.088;2023-02-01T06:54:06;3.53;;;2.20;;
8183;SDS011;4133;48.752;9.088;2023-02-01T06:56:32;4.43;;;2.07;;
8183;SDS011;4133;48.752;9.088;2023-02-01T06:58:58;4.10;;;2.00;;
8183;SDS011;4133;48.752;9.088;2023-02-01T07:01:25;2.23;;;1.80;;
8183;SDS011;4133;48.752;9.088;2023-02-01T07:03:51;4.47;;;2.00;;
8183;SDS011;4133;48.752;9.088;2023-02-01T07:06:17;3.90;;;2.40;;
8183;SDS011;4133;48.752;9.088;2023-02-01T07:08:44;5.10;;;2.20;;
8183;SDS011;4133;48.752;9.088;2023-02-01T07:11:11;5.23;;;2.03;;
8183;SDS011;4133;48.752;9.088;2023-02-01T07:13:37;2.60;;;2.00;;
8183;SDS011;4133;48.752;9.088;2023-02-01T07:16:04;3.03;;;2.20;;
8183;SDS011;4133;48.752;9.088;2023-02-01T07:18:31;3.40;;;2.10;;
8183;SDS011;4133;48.752;9.088;2023-02-01T07:20:57;3.00;;;2.50;;
8183;SDS011;4133;48.752;9.088;2023-02-01T07:23:23;4.43;;;2.23;;
8183;SDS011;4133;48.752;9.088;2023-02-01T07:25:53;6.83;;;1.90;;
8183;SDS011;4133;48.752;9.088;2023-02-01T07:28:19;3.33;;;2.07;;
8183;SDS011;4133;48.752;9.088;2023-02-01T07:30:45;5.37;;;1.97;;
8183;SDS011;4133;48.752;9.088;2023-02-01T07:33:16;3.47;;;1.90;;
8183;SDS011;4133;48.752;9.088;2023-02-01T07:35:42;2.13;;;1.93;;
8183;SDS011;4133;48.752;9.088;2023-02-01T07:38:08;4.20;;;2.00;;
8183;SDS011;4133;48.752;9.088;2023-02-01T07:40:34;2.53;;;2.23;;
8183;SDS011;4133;48.752;9.088;2023-02-01T07:43:00;1.90;;;1.80;;
8183;SDS011;4133;48.752;9.088;2023-02-01T07:45:26;2.30;;;1.90;;
8183;SDS011;4133;48.752;9.088;2023-02-01T07:47:52;6.10;;;2.33;;
8183;SDS011;4133;48.752;9.088;2023-02-01T07:50:18;2.17;;;1.97;;
8183;SDS011;4133;48.752;9.088;2023-02-01T07:52:44;2.63;;;1.97;;
8183;SDS011;4133;48.752;9.088;2023-02-01T07:55:10;5.53;;;1.90;;
8183;SDS011;4133;48.752;9.088;2023-02-01T07:57:36;3.00;;;1.90;;
8183;SDS011;4133;48.752;9.088;2023-02-01T08:00:02;3.50;;;1.90;;
8183;SDS011;4133;48.752;9.088;2023-02-01T08:02:47;5.10;;;2.10;;
8183;SDS011;4133;48.752;9.088;2023-02-01T08:05:13;4.23;;;2.30;;
8183;SDS011;4133;48.752;9.088;2023-02-01T08:07:39;5.07;;;2.30;;
8183;SDS011;4133;48.752;9.088;2023-02-01T08:10:05;4.23;;;2.43;;
8183;SDS011;4133;48.752;9.088;2023-02-01T08:12:35;3.47;;;2.37;;
8183;SDS011;4133;48.752;9.088;2023-02-01T08:15:02;5.95;;;2.40;;
8183;SDS011;4133;48.752;9.088;2023-02-01T08:17:28;5.87;;;2.10;;
8183;SDS011;4133;48.752;9.088;2023-02-01T08:19:54;5.27;;;2.37;;
8183;SDS011;4133;48.752;9.088;2023-02-01T08:22:20;5.63;;;2.40;;
8183;SDS011;4133;48.752;9.088;2023-02-01T08:24:49;3.90;;;2.47;;
8183;SDS011;4133;48.752;9.088;2023-02-01T08:27:15;5.50;;;2.40;;
8183;SDS011;4133;48.752;9.088;2023-02-01T08:29:41;5.47;;;2.50;;
8183;SDS011;4133;48.752;9.088;2023-02-01T08:32:07;4.80;;;2.43;;
8183;SDS011;4133;48.752;9.088;2023-02-01T08:34:34;4.77;;;2.20;;
8183;SDS011;4133;48.752;9.088;2023-02-01T08:37:00;8.17;;;2.23;;
8183;SDS011;4133;48.752;9.088;2023-02-01T08:39:26;6.20;;;2.00;;
8183;SDS011;4133;48.752;9.088;2023-02-01T08:41:52;7.03;;;2.20;;
8183;SDS011;4133;48.752;9.088;2023-02-01T08:44:37;4.67;;;2.30;;
8183;SDS011;4133;48.752;9.088;2023-02-01T08:47:03;5.07;;;2.30;;
8183;SDS011;4133;48.752;9.088;2023-02-01T08:49:29;6.53;;;2.10;;
8183;SDS011;4133;48.752;9.088;2023-02-01T08:51:55;5.50;;;2.30;;
8183;SDS011;4133;48.752;9.088;2023-02-01T08:54:21;7.03;;;2.43;;
8183;SDS011;4133;48.752;9.088;2023-02-01T08:56:47;9.83;;;2.33;;
8183;SDS011;4133;48.752;9.088;2023-02-01T08:59:13;8.67;;;2.23;;
8183;SDS011;4133;48.752;9.088;2023-02-01T09:01:39;5.37;;;2.33;;
8183;SDS011;4133;48.752;9.088;2023-02-01T09:04:05;5.97;;;2.07;;
8183;SDS011;4133;48.752;9.088;2023-02-01T09:06:31;4.43;;;2.30;;
8183;SDS011;4133;48.752;9.088;2023-02-01T09:08:57;8.97;;;2.27;;
8183;SDS011;4133;48.752;9.088;2023-02-01T09:11:23;3.93;;;2.30;;
8183;SDS011;4133;48.752;9.088;2023-02-01T09:13:50;7.47;;;2.27;;
8183;SDS011;4133;48.752;9.088;2023-02-01T09:16:16;6.40;;;2.47;;
8183;SDS011;4133;48.752;9.088;2023-02-01T09:18:43;7.50;;;2.10;;
8183;SDS011;4133;48.752;9.088;2023-02-01T09:21:09;6.77;;;2.47;;
8183;SDS011;4133;48.752;9.088;2023-02-01T09:23:35;8.10;;;2.40;;
8183;SDS011;4133;48.752;9.088;2023-02-01T09:26:01;8.80;;;2.60;;
8183;SDS011;4133;48.752;9.088;2023-02-01T09:28:28;5.03;;;1.97;;
8183;SDS011;4133;48.752;9.088;2023-02-01T09:30:57;9.90;;;2.20;;
8183;SDS011;4133;48.752;9.088;2023-02-01T09:33:24;5.27;;;2.27;;
8183;SDS011;4133;48.752;9.088;2023-02-01T09:36:01;5.23;;;1.97;;
8183;SDS011;4133;48.752;9.088;2023-02-01T09:38:27;9.03;;;2.27;;
8183;SDS011;4133;48.752;9.088;2023-02-01T09:40:54;10.47;;;2.40;;
8183;SDS011;4133;48.752;9.088;2023-02-01T09:48:24;8.57;;;2.90;;
8183;SDS011;4133;48.752;9.088;2023-02-01T09:50:55;9.53;;;2.90;;
8183;SDS011;4133;48.752;9.088;2023-02-01T09:53:27;6.47;;;2.63;;
8183;SDS011;4133;48.752;9.088;2023-02-01T09:55:57;6.17;;;2.00;;
8183;SDS011;4133;48.752;9.088;2023-02-01T09:58:27;6.87;;;2.30;;
8183;SDS011;4133;48.752;9.088;2023-02-01T10:00:57;7.33;;;2.03;;
8183;SDS011;4133;48.752;9.088;2023-02-01T10:03:24;6.67;;;2.30;;
8183;SDS011;4133;48.752;9.088;2023-02-01T10:11:11;11.80;;;2.30;;
8183;SDS011;4133;48.752;9.088;2023-02-01T10:13:44;7.77;;;2.23;;
8183;SDS011;4133;48.752;9.088;2023-02-01T10:18:44;4.90;;;2.23;;
8183;SDS011;4133;48.752;9.088;2023-02-01T10:21:19;7.53;;;2.57;;
8183;SDS011;4133;48.752;9.088;2023-02-01T10:26:19;6.50;;;2.10;;
8183;SDS011;4133;48.752;9.088;2023-02-01T10:28:47;8.23;;;2.77;;
8183;SDS011;4133;48.752;9.088;2023-02-01T10:31:14;8.07;;;2.00;;
8183;SDS011;4133;48.752;9.088;2023-02-01T10:33:48;9.07;;;2.30;;
8183;SDS011;4133;48.752;9.088;2023-02-01T10:36:18;10.67;;;2.13;;
8183;SDS011;4133;48.752;9.088;2023-02-01T10:38:45;9.70;;;2.40;;
8183;SDS011;4133;48.752;9.088;2023-02-01T10:41:12;11.33;;;2.33;;
8183;SDS011;4133;48.752;9.088;2023-02-01T10:43:39;5.87;;;1.70;;
8183;SDS011;4133;48.752;9.088;2023-02-01T10:46:06;7.80;;;2.30;;
8183;SDS011;4133;48.752;9.088;2023-02-01T10:48:32;9.47;;;2.40;;
8183;SDS011;4133;48.752;9.088;2023-02-01T10:51:00;8.00;;;2.60;;
8183;SDS011;4133;48.752;9.088;2023-02-01T10:56:11;8.47;;;2.17;;
8183;SDS011;4133;48.752;9.088;2023-02-01T10:58:47;7.60;;;2.47;;
8183;SDS011;4133;48.752;9.088;2023-02-01T11:01:24;4.97;;;2.00;;
8183;SDS011;4133;48.752;9.088;2023-02-01T11:03:54;7.53;;;1.83;;
8183;SDS011;4133;48.752;9.088;2023-02-01T11:06:28;6.90;;;2.00;;
8183;SDS011;4133;48.752;9.088;2023-02-01T11:08:58;7.90;;;2.07;;
8183;SDS011;4133;48.752;9.088;2023-02-01T11:11:25;7.23;;;2.13;;
8183;SDS011;4133;48.752;9.088;2023-02-01T11:13:53;9.13;;;2.20;;
8183;SDS011;4133;48.752;9.088;2023-02-01T11:16:19;8.00;;;2.43;;
8183;SDS011;4133;48.752;9.088;2023-02-01T11:18:45;13.53;;;2.57;;
8183;SDS011;4133;48.752;9.088;2023-02-01T11:21:18;9.30;;;2.77;;
8183;SDS011;4133;48.752;9.088;2023-02-01T11:23:46;7.63;;;2.30;;
8183;SDS011;4133;48.752;9.088;2023-02-01T11:26:13;8.10;;;2.33;;
8183;SDS011;4133;48.752;9.088;2023-02-01T11:28:40;8.80;;;2.20;;
8183;SDS011;4133;48.752;9.088;2023-02-01T11:31:09;8.00;;;2.57;;
8183;SDS011;4133;48.752;9.088;2023-02-01T11:33:36;7.50;;;2.37;;
8183;SDS011;4133;48.752;9.088;2023-02-01T11:36:14;5.73;;;2.13;;
8183;SDS011;4133;48.752;9.088;2023-02-01T11:38:45;9.90;;;2.43;;
8183;SDS011;4133;48.752;9.088;2023-02-01T11:41:18;11.03;;;2.20;;
8183;SDS011;4133;48.752;9.088;2023-02-01T11:46:22;8.30;;;2.10;;
8183;SDS011;4133;48.752;9.088;2023-02-01T11:48:50;9.23;;;1.80;;
8183;SDS011;4133;48.752;9.088;2023-02-01T11:51:40;10.07;;;2.30;;
8183;SDS011;4133;48.752;9.088;2023-02-01T12:02:15;5.93;;;2.10;;
8183;SDS011;4133;48.752;9.088;2023-02-01T12:04:56;5.70;;;1.83;;
8183;SDS011;4133;48.752;9.088;2023-02-01T12:12:38;9.23;;;2.30;;
8183;SDS011;4133;48.752;9.088;2023-02-01T12:15:13;6.13;;;1.80;;
8183;SDS011;4133;48.752;9.088;2023-02-01T12:17:47;7.00;;;2.37;;
8183;SDS011;4133;48.752;9.088;2023-02-01T12:25:24;4.37;;;2.10;;
8183;SDS011;4133;48.752;9.088;2023-02-01T12:32:51;8.60;;;2.93;;
8183;SDS011;4133;48.752;9.088;2023-02-01T12:45:51;10.43;;;2.13;;
8183;SDS011;4133;48.752;9.088;2023-02-01T12:48:29;9.13;;;2.00;;
8183;SDS011;4133;48.752;9.088;2023-02-01T12:51:09;8.73;;;2.00;;
8183;SDS011;4133;48.752;9.088;2023-02-01T12:56:11;12.70;;;3.23;;
8183;SDS011;4133;48.752;9.088;2023-02-01T12:58:44;8.57;;;2.37;;
8183;SDS011;4133;48.752;9.088;2023-02-01T13:01:12;6.93;;;2.20;;
8183;SDS011;4133;48.752;9.088;2023-02-01T13:06:12;5.97;;;1.73;;
8183;SDS011;4133;48.752;9.088;2023-02-01T13:08:43;9.27;;;2.13;;
8183;SDS011;4133;48.752;9.088;2023-02-01T13:11:12;8.03;;;1.93;;
8183;SDS011;4133;48.752;9.088;2023-02-01T13:16:14;8.10;;;2.40;;
8183;SDS011;4133;48.752;9.088;2023-02-01T13:18:43;10.40;;;2.13;;
8183;SDS011;4133;48.752;9.088;2023-02-01T13:21:18;7.63;;;2.33;;
8183;SDS011;4133;48.752;9.088;2023-02-01T13:23:46;9.67;;;2.40;;
8183;SDS011;4133;48.752;9.088;2023-02-01T13:26:14;9.30;;;2.37;;
8183;SDS011;4133;48.752;9.088;2023-02-01T13:44:05;12.93;;;2.37;;
8183;SDS011;4133;48.752;9.088;2023-02-01T13:46:43;4.97;;;1.80;;
8183;SDS011;4133;48.752;9.088;2023-02-01T13:49:17;6.67;;;1.97;;
8183;SDS011;4133;48.752;9.088;2023-02-01T13:51:46;7.83;;;2.60;;
8183;SDS011;4133;48.752;9.088;2023-02-01T13:54:29;10.67;;;2.43;;
8183;SDS011;4133;48.752;9.088;2023-02-01T13:56:55;5.57;;;2.00;;
8183;SDS011;4133;48.752;9.088;2023-02-01T14:04:50;7.83;;;2.33;;
8183;SDS011;4133;48.752;9.088;2023-02-01T14:07:20;7.67;;;2.20;;
8183;SDS011;4133;48.752;9.088;2023-02-01T14:09:46;6.43;;;1.93;;
8183;SDS011;4133;48.752;9.088;2023-02-01T14:15:17;7.87;;;2.30;;
8183;SDS011;4133;48.752;9.088;2023-02-01T14:17:43;6.67;;;1.73;;
8183;SDS011;4133;48.752;9.088;2023-02-01T14:23:01;7.33;;;1.73;;
8183;SDS011;4133;48.752;9.088;2023-02-01T14:25:31;6.53;;;1.73;;
8183;SDS011;4133;48.752;9.088;2023-02-01T14:27:58;8.67;;;2.00;;
8183;SDS011;4133;48.752;9.088;2023-02-01T14:30:24;7.80;;;1.80;;
8183;SDS011;4133;48.752;9.088;2023-02-01T14:32:50;7.10;;;2.00;;
8183;SDS011;4133;48.752;9.088;2023-02-01T14:35:18;9.97;;;2.10;;
8183;SDS011;4133;48.752;9.088;2023-02-01T14:37:45;8.87;;;2.00;;
8183;SDS011;4133;48.752;9.088;2023-02-01T14:47:52;9.00;;;1.93;;
8183;SDS011;4133;48.752;9.088;2023-02-01T14:53:16;8.33;;;2.00;;
8183;SDS011;4133;48.752;9.088;2023-02-01T14:55:51;10.37;;;2.30;;
8183;SDS011;4133;48.752;9.088;2023-02-01T15:00:59;7.20;;;2.20;;
8183;SDS011;4133;48.752;9.088;2023-02-01T15:05:55;5.80;;;2.03;;
8183;SDS011;4133;48.752;9.088;2023-02-01T15:08:24;7.07;;;2.40;;
8183;SDS011;4133;48.752;9.088;2023-02-01T15:10:51;7.90;;;1.90;;
8183;SDS011;4133;48.752;9.088;2023-02-01T15:13:22;7.27;;;1.80;;
8183;SDS011;4133;48.752;9.088;2023-02-01T15:16:07;7.20;;;2.03;;
8183;SDS011;4133;48.752;9.088;2023-02-01T15:18:35;10.50;;;2.13;;
8183;SDS011;4133;48.752;9.088;2023-02-01T15:21:02;8.50;;;2.17;;
8183;SDS011;4133;48.752;9.088;2023-02-01T15:23:28;5.00;;;1.90;;
8183;SDS011;4133;48.752;9.088;2023-02-01T15:25:55;7.03;;;2.40;;
8183;SDS011;4133;48.752;9.088;2023-02-01T15:28:21;6.10;;;1.93;;
8183;SDS011;4133;48.752;9.088;2023-02-01T15:30:58;8.40;;;2.03;;
8183;SDS011;4133;48.752;9.088;2023-02-01T15:33:25;11.83;;;2.67;;
8183;SDS011;4133;48.752;9.088;2023-02-01T15:38:30;8.70;;;2.20;;
8183;SDS011;4133;48.752;9.088;2023-02-01T15:40:56;9.70;;;2.57;;
8183;SDS011;4133;48.752;9.088;2023-02-01T15:43:24;11.47;;;2.40;;
8183;SDS011;4133;48.752;9.088;2023-02-01T15:45:50;6.13;;;2.20;;
8183;SDS011;4133;48.752;9.088;2023-02-01T15:48:21;6.13;;;2.10;;
8183;SDS011;4133;48.752;9.088;2023-02-01T15:50:48;8.33;;;2.30;;
8183;SDS011;4133;48.752;9.088;2023-02-01T15:53:19;9.03;;;1.93;;
8183;SDS011;4133;48.752;9.088;2023-02-01T15:55:45;6.97;;;2.07;;
8183;SDS011;4133;48.752;9.088;2023-02-01T15:58:22;6.70;;;1.63;;
8183;SDS011;4133;48.752;9.088;2023-02-01T16:00:49;5.40;;;1.70;;
8183;SDS011;4133;48.752;9.088;2023-02-01T16:06:03;5.07;;;1.77;;
8183;SDS011;4133;48.752;9.088;2023-02-01T16:08:30;10.60;;;2.27;;
8183;SDS011;4133;48.752;9.088;2023-02-01T16:13:42;7.23;;;2.37;;
8183;SDS011;4133;48.752;9.088;2023-02-01T16:16:09;10.23;;;3.13;;
8183;SDS011;4133;48.752;9.088;2023-02-01T16:18:38;9.53;;;2.20;;
8183;SDS011;4133;48.752;9.088;2023-02-01T16:21:05;8.77;;;2.10;;
8183;SDS011;4133;48.752;9.088;2023-02-01T16:23:34;8.77;;;1.90;;
8183;SDS011;4133;48.752;9.088;2023-02-01T16:26:00;8.53;;;2.37;;
8183;SDS011;4133;48.752;9.088;2023-02-01T16:28:26;8.03;;;2.83;;
8183;SDS011;4133;48.752;9.088;2023-02-01T16:30:52;3.53;;;1.63;;
8183;SDS011;4133;48.752;9.088;2023-02-01T16:33:19;8.47;;;1.97;;
8183;SDS011;4133;48.752;9.088;2023-02-01T16:35:47;4.53;;;1.77;;
8183;SDS011;4133;48.752;9.088;2023-02-01T16:38:14;6.70;;;1.93;;
8183;SDS011;4133;48.752;9.088;2023-02-01T16:40:41;7.33;;;2.20;;
8183;SDS011;4133;48.752;9.088;2023-02-01T16:43:19;8.60;;;2.07;;
8183;SDS011;4133;48.752;9.088;2023-02-01T16:45:45;6.97;;;2.30;;
8183;SDS011;4133;48.752;9.088;2023-02-01T16:48:19;5.63;;;1.97;;
8183;SDS011;4133;48.752;9.088;2023-02-01T16:50:46;8.90;;;1.97;;
8183;SDS011;4133;48.752;9.088;2023-02-01T16:53:13;4.43;;;2.03;;
8183;SDS011;4133;48.752;9.088;2023-02-01T16:55:40;6.60;;;2.17;;
8183;SDS011;4133;48.752;9.088;2023-02-01T16:58:08;4.77;;;1.73;;
8183;SDS011;4133;48.752;9.088;2023-02-01T17:00:34;5.00;;;2.23;;
8183;SDS011;4133;48.752;9.088;2023-02-01T17:03:02;6.53;;;2.70;;
8183;SDS011;4133;48.752;9.088;2023-02-01T17:05:28;8.82;;;2.47;;
8183;SDS011;4133;48.752;9.088;2023-02-01T17:07:55;6.90;;;2.70;;
8183;SDS011;4133;48.752;9.088;2023-02-01T17:10:23;8.27;;;2.77;;
8183;SDS011;4133;48.752;9.088;2023-02-01T17:12:50;5.63;;;2.70;;
8183;SDS011;4133;48.752;9.088;2023-02-01T17:17:45;8.20;;;2.43;;
8183;SDS011;4133;48.752;9.088;2023-02-01T17:20:19;9.23;;;2.20;;
8183;SDS011;4133;48.752;9.088;2023-02-01T17:22:46;6.33;;;1.93;;
8183;SDS011;4133;48.752;9.088;2023-02-01T17:25:16;6.20;;;2.33;;
8183;SDS011;4133;48.752;9.088;2023-02-01T17:27:42;8.50;;;2.00;;
8183;SDS011;4133;48.752;9.088;2023-02-01T17:30:09;6.80;;;2.10;;
8183;SDS011;4133;48.752;9.088;2023-02-01T17:32:35;9.50;;;2.60;;
8183;SDS011;4133;48.752;9.088;2023-02-01T17:35:03;8.63;;;2.17;;
8183;SDS011;4133;48.752;9.088;2023-02-01T17:37:30;6.60;;;1.80;;
8183;SDS011;4133;48.752;9.088;2023-02-01T17:39:56;5.03;;;2.00;;